Time;durP1;ratioP1;P1;durP2;ratioP2;P2;SDS_P1;SDS_P2;PMS_P1;PMS_P2;Temp;Humidity;BMP_temperature;BMP_pressure;BME280_temperature;BME280_humidity;BME280_pressure;Samples;Min_cycle;Max_cycle;Signal;HPM_P1;HPM_P2
2023/08/19 00:00:18;;;;;;;5.30;4.60;;;24.10;93.20;;;;;;5062752;28;21025;-66
2023/08/19 00:02:44;;;;;;;6.38;5.30;;;24.10;93.60;;;;;;5056776;28;20458;-67
2023/08/19 00:05:11;;;;;;;5.47;4.55;;;24.10;93.10;;;;;;5064238;28;20458;-67
2023/08/19 00:07:38;;;;;;;6.05;4.70;;;24.10;92.90;;;;;;5066811;28;20429;-67
2023/08/19 00:10:06;;;;;;;5.18;4.60;;;24.10;92.60;;;;;;5062147;28;20444;-67
2023/08/19 00:12:33;;;;;;;5.15;4.20;;;24.00;92.80;;;;;;5062598;28;20432;-67
2023/08/19 00:15:00;;;;;;;7.80;4.38;;;24.00;92.60;;;;;;5059309;28;20803;-67
2023/08/19 00:17:28;;;;;;;7.28;4.47;;;23.90;92.70;;;;;;5065738;28;20432;-66
2023/08/19 00:19:55;;;;;;;4.90;4.35;;;23.90;92.70;;;;;;5050855;28;20430;-66
2023/08/19 00:22:21;;;;;;;5.80;4.57;;;23.90;92.80;;;;;;5051658;28;20497;-67
2023/08/19 00:24:48;;;;;;;6.43;4.72;;;23.80;93.00;;;;;;5054063;28;20417;-67
2023/08/19 00:27:15;;;;;;;5.97;4.65;;;23.80;93.10;;;;;;5069406;28;20434;-67
2023/08/19 00:29:42;;;;;;;5.40;4.65;;;23.80;93.10;;;;;;5055225;28;20795;-67
2023/08/19 00:32:09;;;;;;;5.10;4.60;;;23.80;93.60;;;;;;5067990;28;20423;-67
2023/08/19 00:34:37;;;;;;;6.30;4.60;;;23.70;93.60;;;;;;5062076;28;20892;-66
2023/08/19 00:37:05;;;;;;;5.77;4.50;;;23.70;93.40;;;;;;5067139;28;20443;-66
2023/08/19 00:39:31;;;;;;;4.93;4.43;;;23.60;93.40;;;;;;5056034;28;20428;-66
2023/08/19 00:41:58;;;;;;;5.57;4.90;;;23.60;93.30;;;;;;5060049;28;20438;-65
2023/08/19 00:44:25;;;;;;;7.30;4.43;;;23.60;93.40;;;;;;5061457;28;20429;-66
2023/08/19 00:46:53;;;;;;;5.80;5.10;;;23.60;93.60;;;;;;5064513;28;20430;-68
2023/08/19 00:49:20;;;;;;;5.90;4.78;;;23.60;93.60;;;;;;5068626;28;20489;-66
2023/08/19 00:51:49;;;;;;;4.70;4.30;;;23.50;93.70;;;;;;5056806;28;20451;-67
2023/08/19 00:54:15;;;;;;;5.10;4.30;;;23.50;94.00;;;;;;5058660;28;20912;-65
2023/08/19 00:56:42;;;;;;;5.75;4.40;;;23.50;93.80;;;;;;5058366;28;20440;-66
2023/08/19 00:59:09;;;;;;;6.63;4.80;;;23.40;94.00;;;;;;5052295;28;20912;-66
2023/08/19 01:01:36;;;;;;;5.43;4.90;;;23.40;94.80;;;;;;5063446;28;20801;-66
2023/08/19 01:04:03;;;;;;;5.55;4.93;;;23.40;94.70;;;;;;5053108;28;20421;-66
2023/08/19 01:06:35;;;;;;;5.15;4.65;;;23.40;94.90;;;;;;5059038;28;20439;-66
2023/08/19 01:09:18;;;;;;;5.30;4.80;;;23.30;95.30;;;;;;5054827;28;20429;-66
2023/08/19 01:12:02;;;;;;;6.17;4.43;;;23.30;95.00;;;;;;5052503;28;20484;-66
2023/08/19 01:14:40;;;;;;;7.30;5.17;;;23.30;95.00;;;;;;5058874;28;20433;-66
2023/08/19 01:17:10;;;;;;;5.25;4.75;;;23.20;95.40;;;;;;5064783;28;20806;-67
2023/08/19 01:19:37;;;;;;;5.32;4.60;;;23.20;95.80;;;;;;5067916;28;20415;-66
2023/08/19 01:22:07;;;;;;;7.13;5.20;;;23.20;95.60;;;;;;5056958;28;20432;-67
2023/08/19 01:24:39;;;;;;;5.10;4.50;;;23.20;95.80;;;;;;5065162;28;20419;-67
2023/08/19 01:27:07;;;;;;;4.90;4.40;;;23.20;95.10;;;;;;5055499;28;20425;-67
2023/08/19 01:29:34;;;;;;;6.15;4.70;;;23.20;95.40;;;;;;5057507;28;20801;-67
2023/08/19 01:32:01;;;;;;;4.97;4.43;;;23.10;95.00;;;;;;5057417;28;20435;-66
2023/08/19 01:34:28;;;;;;;5.32;4.82;;;23.10;95.60;;;;;;5054896;28;20780;-66
2023/08/19 01:37:01;;;;;;;5.63;5.00;;;23.10;95.60;;;;;;5063774;28;20789;-66
2023/08/19 01:39:30;;;;;;;6.20;5.60;;;23.10;95.60;;;;;;5058292;28;20417;-66
2023/08/19 01:41:58;;;;;;;5.70;5.10;;;23.10;96.10;;;;;;5059056;28;20855;-66
2023/08/19 01:44:25;;;;;;;5.22;4.72;;;23.00;96.10;;;;;;5060692;28;20501;-66
2023/08/19 01:46:52;;;;;;;5.80;5.20;;;23.00;96.30;;;;;;5061441;28;20425;-66
2023/08/19 01:49:19;;;;;;;5.75;5.13;;;23.00;96.00;;;;;;5057003;28;20752;-67
2023/08/19 01:51:46;;;;;;;5.22;4.50;;;23.00;96.10;;;;;;5054598;28;20435;-66
2023/08/19 01:54:12;;;;;;;5.37;4.50;;;22.90;96.00;;;;;;5050921;28;20461;-66
2023/08/19 01:56:39;;;;;;;6.40;4.65;;;22.90;96.20;;;;;;5091658;22;20433;-76
2023/08/19 01:59:07;;;;;;;6.63;4.68;;;22.90;96.10;;;;;;5085362;28;20422;-75
2023/08/19 02:01:34;;;;;;;5.32;4.80;;;22.90;95.40;;;;;;5088495;28;20438;-76
2023/08/19 02:04:01;;;;;;;5.57;4.32;;;22.90;95.60;;;;;;5088158;28;20803;-76
2023/08/19 02:06:29;;;;;;;6.45;4.93;;;22.90;95.80;;;;;;5084427;28;20437;-75
2023/08/19 02:08:55;;;;;;;5.75;5.15;;;22.90;95.50;;;;;;5088815;28;20495;-75
2023/08/19 02:11:22;;;;;;;6.20;4.80;;;22.90;95.90;;;;;;5088294;28;20425;-75
2023/08/19 02:13:49;;;;;;;6.28;4.75;;;22.90;95.80;;;;;;5089542;28;20754;-76
2023/08/19 02:16:17;;;;;;;6.07;4.80;;;22.90;95.80;;;;;;5088037;28;20438;-76
2023/08/19 02:18:44;;;;;;;7.17;4.60;;;22.80;95.50;;;;;;5087823;28;20421;-76
2023/08/19 02:21:10;;;;;;;5.60;4.40;;;22.80;95.40;;;;;;5087555;28;20430;-76
2023/08/19 02:23:37;;;;;;;7.10;4.50;;;22.80;95.70;;;;;;5090349;28;20414;-76
2023/08/19 02:26:04;;;;;;;4.70;4.30;;;22.80;95.60;;;;;;5089055;28;20434;-75
2023/08/19 02:28:30;;;;;;;4.55;4.10;;;22.80;95.60;;;;;;5088491;28;20425;-76
2023/08/19 02:31:02;;;;;;;5.03;4.53;;;22.80;95.40;;;;;;5089779;28;20437;-76
2023/08/19 02:33:30;;;;;;;4.85;4.38;;;22.80;95.80;;;;;;5085061;28;20446;-75
2023/08/19 02:35:57;;;;;;;5.33;4.30;;;22.80;95.70;;;;;;5087020;28;20430;-76
2023/08/19 02:38:23;;;;;;;5.00;4.50;;;22.80;95.80;;;;;;5088853;28;20914;-76
2023/08/19 02:40:50;;;;;;;5.03;4.53;;;22.80;95.50;;;;;;5087599;28;20434;-76
2023/08/19 02:43:17;;;;;;;5.50;4.40;;;22.80;95.20;;;;;;5085198;28;20427;-76
2023/08/19 02:45:44;;;;;;;5.00;4.50;;;22.80;95.20;;;;;;5085605;28;20876;-76
2023/08/19 02:48:11;;;;;;;6.45;4.30;;;22.80;95.00;;;;;;5089251;28;20418;-76
2023/08/19 02:50:39;;;;;;;6.68;4.30;;;22.80;95.10;;;;;;5086726;28;20517;-76
2023/08/19 02:53:05;;;;;;;4.35;3.95;;;22.80;95.20;;;;;;5087747;28;20406;-75
2023/08/19 02:55:32;;;;;;;4.82;3.90;;;22.80;95.30;;;;;;5087768;28;20441;-77
2023/08/19 02:57:59;;;;;;;4.80;4.00;;;22.80;94.90;;;;;;5087476;28;20430;-76
2023/08/19 03:00:26;;;;;;;5.00;3.83;;;22.80;94.90;;;;;;5081129;28;20975;-76
2023/08/19 03:02:53;;;;;;;5.50;3.90;;;22.80;95.00;;;;;;5087746;28;20467;-74
2023/08/19 03:05:20;;;;;;;4.93;3.92;;;22.80;94.80;;;;;;5087668;28;20410;-75
2023/08/19 03:07:48;;;;;;;4.30;3.90;;;22.80;95.30;;;;;;5088696;28;20429;-76
2023/08/19 03:10:15;;;;;;;4.40;4.00;;;22.80;95.20;;;;;;5082496;28;20454;-76
2023/08/19 03:12:41;;;;;;;4.32;3.92;;;22.80;95.30;;;;;;5087472;28;20434;-75
2023/08/19 03:15:08;;;;;;;6.07;4.00;;;22.80;95.10;;;;;;5087945;28;20417;-78
2023/08/19 03:17:35;;;;;;;4.85;4.20;;;22.70;94.90;;;;;;5087565;28;20521;-76
2023/08/19 03:20:02;;;;;;;5.43;3.83;;;22.80;94.90;;;;;;5086303;28;20421;-75
2023/08/19 03:22:29;;;;;;;5.38;3.65;;;22.80;94.60;;;;;;5088240;28;20409;-76
2023/08/19 03:24:57;;;;;;;5.67;3.70;;;22.80;94.60;;;;;;5087529;28;20452;-76
2023/08/19 03:27:23;;;;;;;4.70;3.67;;;22.80;94.70;;;;;;5090235;28;20422;-76
2023/08/19 03:29:50;;;;;;;4.18;3.78;;;22.80;95.10;;;;;;5093190;28;20428;-75
2023/08/19 03:32:17;;;;;;;4.53;4.03;;;22.80;94.60;;;;;;5087874;28;20430;-76
2023/08/19 03:34:43;;;;;;;5.40;3.78;;;22.70;95.10;;;;;;5092093;28;21007;-76
2023/08/19 03:37:10;;;;;;;4.50;4.10;;;22.80;94.90;;;;;;5091468;28;20436;-76
2023/08/19 03:39:37;;;;;;;4.30;3.90;;;22.70;94.70;;;;;;5091871;28;20414;-76
2023/08/19 03:42:05;;;;;;;4.05;3.58;;;22.70;94.80;;;;;;5094056;28;20425;-77
2023/08/19 03:44:32;;;;;;;4.60;3.67;;;22.70;95.10;;;;;;5091882;28;20433;-76
2023/08/19 03:46:59;;;;;;;4.10;3.70;;;22.70;95.10;;;;;;5090440;28;20448;-76
2023/08/19 03:49:25;;;;;;;4.80;3.75;;;22.70;94.70;;;;;;5091688;28;20555;-76
2023/08/19 03:51:52;;;;;;;5.13;4.00;;;22.70;94.60;;;;;;5088433;28;20915;-76
2023/08/19 03:54:19;;;;;;;4.00;3.70;;;22.70;94.80;;;;;;5092046;28;20436;-76
2023/08/19 03:56:45;;;;;;;4.40;4.00;;;22.70;94.70;;;;;;5090851;28;20425;-72
2023/08/19 03:59:13;;;;;;;4.28;3.75;;;22.70;94.80;;;;;;5095840;28;20503;-72
2023/08/19 04:01:40;;;;;;;5.88;4.03;;;22.60;95.00;;;;;;5094410;28;20916;-72
2023/08/19 04:04:09;;;;;;;4.75;3.47;;;22.60;95.30;;;;;;5092650;28;20406;-71
2023/08/19 04:06:35;;;;;;;5.60;3.50;;;22.60;95.00;;;;;;5090776;28;20432;-72
2023/08/19 04:09:02;;;;;;;4.70;4.00;;;22.60;95.30;;;;;;5091843;28;20422;-72
2023/08/19 04:11:29;;;;;;;5.60;4.10;;;22.60;95.90;;;;;;5091996;28;20426;-72
2023/08/19 04:13:56;;;;;;;6.47;3.50;;;22.50;95.50;;;;;;5092308;28;20406;-71
2023/08/19 04:16:24;;;;;;;5.32;3.83;;;22.50;95.60;;;;;;5091399;28;20456;-73
2023/08/19 04:18:51;;;;;;;5.90;4.07;;;22.50;95.70;;;;;;5088085;28;20521;-72
2023/08/19 04:21:18;;;;;;;4.65;3.90;;;22.50;95.40;;;;;;5091729;28;20406;-71
2023/08/19 04:23:45;;;;;;;4.50;3.90;;;22.50;95.90;;;;;;5091960;28;20498;-73
2023/08/19 04:26:12;;;;;;;4.15;3.50;;;22.50;95.80;;;;;;5091565;28;20801;-72
2023/08/19 04:28:38;;;;;;;4.30;3.90;;;22.50;96.00;;;;;;5090811;28;20430;-73
2023/08/19 04:31:07;;;;;;;4.43;4.03;;;22.40;96.10;;;;;;5088926;28;20448;-72
2023/08/19 04:33:35;;;;;;;4.00;3.70;;;22.40;96.30;;;;;;5096714;28;20406;-72
2023/08/19 04:36:03;;;;;;;4.13;3.70;;;22.40;96.30;;;;;;5092586;28;20919;-71
2023/08/19 04:38:30;;;;;;;4.15;3.75;;;22.30;96.20;;;;;;5090827;28;20418;-72
2023/08/19 04:40:59;;;;;;;5.60;4.60;;;22.30;96.20;;;;;;5089410;28;20425;-72
2023/08/19 04:43:27;;;;;;;4.85;3.90;;;22.30;96.20;;;;;;5090051;28;20436;-71
2023/08/19 04:45:54;;;;;;;5.43;4.18;;;22.30;96.10;;;;;;5087444;28;20437;-73
2023/08/19 04:48:21;;;;;;;4.60;4.20;;;22.30;96.40;;;;;;5088326;28;20815;-70
2023/08/19 04:50:49;;;;;;;4.68;3.80;;;22.30;96.60;;;;;;5090658;28;20501;-71
2023/08/19 04:53:16;;;;;;;5.72;3.97;;;22.30;96.70;;;;;;5087141;28;20406;-72
2023/08/19 04:55:43;;;;;;;5.05;3.95;;;22.30;96.80;;;;;;5088992;28;20441;-72
2023/08/19 04:58:10;;;;;;;4.50;4.10;;;22.30;96.70;;;;;;5089632;28;20430;-69
2023/08/19 05:00:37;;;;;;;5.00;3.87;;;22.30;96.60;;;;;;5088459;28;20422;-70
2023/08/19 05:03:05;;;;;;;4.35;3.95;;;22.30;96.60;;;;;;5089434;28;20425;-72
2023/08/19 05:05:31;;;;;;;5.00;4.10;;;22.30;96.20;;;;;;5090122;28;20438;-73
2023/08/19 05:07:59;;;;;;;4.30;3.75;;;22.30;96.40;;;;;;5090339;28;20414;-72
2023/08/19 05:10:26;;;;;;;4.10;3.70;;;22.30;96.30;;;;;;5088868;28;20430;-69
2023/08/19 05:12:54;;;;;;;4.43;3.90;;;22.40;95.90;;;;;;5087339;28;20426;-72
2023/08/19 05:15:21;;;;;;;4.50;4.10;;;22.40;96.30;;;;;;5088386;28;20916;-73
2023/08/19 05:17:48;;;;;;;4.78;4.20;;;22.40;96.20;;;;;;5090294;28;20406;-71
2023/08/19 05:20:14;;;;;;;4.97;4.00;;;22.40;96.40;;;;;;5088820;28;20499;-71
2023/08/19 05:22:41;;;;;;;4.57;3.95;;;22.40;96.00;;;;;;5090055;28;20425;-73
2023/08/19 05:25:09;;;;;;;5.50;4.00;;;22.50;95.80;;;;;;5083577;28;20426;-72
2023/08/19 05:27:36;;;;;;;4.43;3.80;;;22.50;95.80;;;;;;5089608;28;20413;-73
2023/08/19 05:30:07;;;;;;;4.65;3.80;;;22.50;95.40;;;;;;5089168;28;20429;-71
2023/08/19 05:32:33;;;;;;;4.90;3.80;;;22.50;95.40;;;;;;5089952;28;20500;-73
2023/08/19 05:35:00;;;;;;;6.05;3.90;;;22.60;95.10;;;;;;5089639;28;20460;-73
2023/08/19 05:37:27;;;;;;;4.00;3.60;;;22.60;95.10;;;;;;5089346;28;20442;-72
2023/08/19 05:39:53;;;;;;;5.03;4.20;;;22.60;95.00;;;;;;5091314;28;20412;-72
2023/08/19 05:42:21;;;;;;;4.45;3.90;;;22.70;94.90;;;;;;5088966;28;20453;-71
2023/08/19 05:44:48;;;;;;;4.07;3.67;;;22.70;95.10;;;;;;5087336;28;20429;-73
2023/08/19 05:47:15;;;;;;;5.10;3.75;;;22.70;94.90;;;;;;5089541;28;20434;-71
2023/08/19 05:49:42;;;;;;;3.97;3.50;;;22.70;94.90;;;;;;5087798;28;20453;-74
2023/08/19 05:52:08;;;;;;;4.40;3.80;;;22.70;94.70;;;;;;5089153;28;20413;-72
2023/08/19 05:54:35;;;;;;;3.97;3.58;;;22.80;94.60;;;;;;5088065;28;20429;-73
2023/08/19 05:57:02;;;;;;;4.00;3.60;;;22.80;94.60;;;;;;5087472;28;20457;-71
2023/08/19 05:59:30;;;;;;;4.80;3.40;;;22.80;94.60;;;;;;5089293;28;20424;-72
2023/08/19 06:01:56;;;;;;;4.00;3.58;;;22.80;94.60;;;;;;5086980;28;20437;-72
2023/08/19 06:04:23;;;;;;;5.53;4.00;;;22.90;94.20;;;;;;5088394;28;20438;-71
2023/08/19 06:06:50;;;;;;;4.82;3.63;;;22.90;94.30;;;;;;5088810;28;20426;-73
2023/08/19 06:09:17;;;;;;;5.43;3.08;;;23.00;94.10;;;;;;5088454;28;20430;-73
2023/08/19 06:11:51;;;;;;;3.70;3.40;;;23.00;94.00;;;;;;5088088;28;20433;-73
2023/08/19 06:14:18;;;;;;;5.25;3.38;;;23.10;93.70;;;;;;5089334;28;20416;-74
2023/08/19 06:16:46;;;;;;;3.75;3.35;;;23.10;93.60;;;;;;5087255;28;20434;-71
2023/08/19 06:19:14;;;;;;;5.00;3.40;;;23.10;93.70;;;;;;5085722;28;20429;-74
2023/08/19 06:21:40;;;;;;;6.10;3.40;;;23.20;93.60;;;;;;5088490;28;20417;-74
2023/08/19 06:24:08;;;;;;;3.95;3.35;;;23.20;93.70;;;;;;5088776;28;20434;-71
2023/08/19 06:26:35;;;;;;;3.83;3.23;;;23.20;93.60;;;;;;5087487;28;20944;-75
2023/08/19 06:29:02;;;;;;;4.57;3.40;;;23.30;93.60;;;;;;5088928;28;20410;-74
2023/08/19 06:31:29;;;;;;;4.00;3.17;;;23.30;93.60;;;;;;5087588;28;20786;-72
2023/08/19 06:33:58;;;;;;;4.97;3.47;;;23.30;93.60;;;;;;5081811;28;20424;-74
2023/08/19 06:36:28;;;;;;;4.55;3.78;;;23.30;93.70;;;;;;5088035;28;20435;-74
2023/08/19 06:39:02;;;;;;;4.43;3.30;;;23.30;93.70;;;;;;5076803;28;20513;-72
2023/08/19 06:41:29;;;;;;;3.97;3.67;;;23.40;93.70;;;;;;5085558;28;20498;-73
2023/08/19 06:43:58;;;;;;;5.20;3.33;;;23.40;93.90;;;;;;5087838;28;20432;-72
2023/08/19 06:46:25;;;;;;;4.53;3.40;;;23.40;93.80;;;;;;5094566;28;20578;-73
2023/08/19 06:48:53;;;;;;;4.25;3.30;;;23.50;93.70;;;;;;5097292;28;20420;-72
2023/08/19 06:51:21;;;;;;;5.40;3.38;;;23.50;93.90;;;;;;5089285;28;20433;-75
2023/08/19 06:53:49;;;;;;;4.90;3.30;;;23.50;93.90;;;;;;5085150;28;20821;-74
2023/08/19 06:56:24;;;;;;;3.67;3.35;;;23.50;93.50;;;;;;5090056;28;20438;-74
2023/08/19 06:58:55;;;;;;;4.25;3.67;;;23.60;93.50;;;;;;5088010;28;20834;-75
2023/08/19 07:01:25;;;;;;;4.78;3.20;;;23.60;93.40;;;;;;5087224;28;20812;-73
2023/08/19 07:03:52;;;;;;;5.00;3.30;;;23.60;93.20;;;;;;5087321;28;20422;-74
2023/08/19 07:06:22;;;;;;;6.13;3.67;;;23.70;93.30;;;;;;5083991;28;20486;-72
2023/08/19 07:08:50;;;;;;;4.20;3.40;;;23.80;93.40;;;;;;5079595;28;20438;-73
2023/08/19 07:11:17;;;;;;;4.13;3.40;;;23.90;92.70;;;;;;5086460;28;21083;-72
2023/08/19 07:13:45;;;;;;;3.30;3.00;;;23.90;92.30;;;;;;5087595;28;20425;-73
2023/08/19 07:16:14;;;;;;;3.42;3.00;;;24.00;92.20;;;;;;5088381;28;20414;-74
2023/08/19 07:18:43;;;;;;;3.40;2.90;;;24.10;92.10;;;;;;5088517;28;20410;-70
2023/08/19 07:21:12;;;;;;;4.00;3.30;;;24.20;91.60;;;;;;5088352;28;20477;-74
2023/08/19 07:23:42;;;;;;;3.58;2.90;;;24.30;91.30;;;;;;5088735;28;20458;-73
2023/08/19 07:26:09;;;;;;;3.72;3.33;;;24.30;91.20;;;;;;5087715;28;20946;-73
2023/08/19 07:28:37;;;;;;;5.65;3.33;;;24.30;90.80;;;;;;5084901;28;20422;-74
2023/08/19 07:31:04;;;;;;;3.10;2.80;;;24.40;91.00;;;;;;5087852;28;20437;-75
2023/08/19 07:33:31;;;;;;;3.20;2.90;;;24.40;91.00;;;;;;5089069;28;20439;-76
2023/08/19 07:35:59;;;;;;;5.68;3.30;;;24.40;91.50;;;;;;5089112;28;20432;-73
2023/08/19 07:38:25;;;;;;;4.43;3.10;;;24.40;90.90;;;;;;5089329;28;20421;-72
2023/08/19 07:40:53;;;;;;;3.60;3.30;;;24.40;90.80;;;;;;5087851;28;20430;-75
2023/08/19 07:43:20;;;;;;;3.45;2.72;;;24.40;91.00;;;;;;5081963;28;20436;-75
2023/08/19 07:45:47;;;;;;;4.50;3.00;;;24.50;90.70;;;;;;5080324;28;20422;-75
2023/08/19 07:48:14;;;;;;;3.53;2.80;;;24.60;90.40;;;;;;5095189;28;20409;-73
2023/08/19 07:50:41;;;;;;;4.97;3.28;;;24.60;90.30;;;;;;5091019;28;20512;-72
2023/08/19 07:53:08;;;;;;;4.00;2.70;;;24.70;90.20;;;;;;5088627;28;20438;-76
2023/08/19 07:55:35;;;;;;;3.58;3.05;;;24.80;90.10;;;;;;5108547;22;21009;-71
2023/08/19 07:58:03;;;;;;;4.30;3.10;;;24.90;89.90;;;;;;5068252;28;20423;-70
2023/08/19 08:00:30;;;;;;;4.50;3.40;;;24.90;89.30;;;;;;5065128;28;20438;-70
2023/08/19 08:02:56;;;;;;;3.20;2.60;;;25.00;89.20;;;;;;5065641;28;20434;-74
2023/08/19 08:05:23;;;;;;;4.80;2.80;;;25.00;90.00;;;;;;5064462;28;20451;-69
2023/08/19 08:07:50;;;;;;;3.72;2.70;;;25.10;89.80;;;;;;5065936;28;20917;-68
2023/08/19 08:10:17;;;;;;;3.90;3.05;;;25.20;88.70;;;;;;5063298;28;20503;-68
2023/08/19 08:12:43;;;;;;;3.85;2.80;;;25.40;88.10;;;;;;5065511;28;20423;-68
2023/08/19 08:15:12;;;;;;;4.07;3.10;;;25.40;87.40;;;;;;5067708;28;20431;-69
2023/08/19 08:17:39;;;;;;;3.37;2.87;;;25.50;86.70;;;;;;5059586;28;20421;-69
2023/08/19 08:20:07;;;;;;;4.40;3.08;;;25.60;86.30;;;;;;5070600;28;20898;-69
2023/08/19 08:22:35;;;;;;;3.85;3.30;;;25.60;86.50;;;;;;5070292;28;20438;-69
2023/08/19 08:25:04;;;;;;;3.13;2.80;;;25.60;86.40;;;;;;5063729;28;20429;-68
2023/08/19 08:27:31;;;;;;;5.35;2.80;;;25.70;86.40;;;;;;5069167;28;20411;-69
2023/08/19 08:29:57;;;;;;;3.30;2.72;;;25.70;86.90;;;;;;5064297;28;20433;-69
2023/08/19 08:32:26;;;;;;;2.95;2.60;;;25.70;86.50;;;;;;5069071;28;20431;-68
2023/08/19 08:34:52;;;;;;;4.40;3.47;;;25.70;87.30;;;;;;5071606;28;20426;-68
2023/08/19 08:37:20;;;;;;;3.40;3.10;;;25.60;87.50;;;;;;5071106;28;20435;-68
2023/08/19 08:39:46;;;;;;;3.03;2.53;;;25.70;87.60;;;;;;5068931;28;20408;-68
2023/08/19 08:42:15;;;;;;;4.00;3.10;;;25.70;87.50;;;;;;5066099;28;21000;-68
2023/08/19 08:44:46;;;;;;;3.40;3.10;;;25.70;87.30;;;;;;5066587;28;20428;-69
2023/08/19 08:47:15;;;;;;;3.95;2.53;;;25.70;87.50;;;;;;5062133;28;20576;-67
2023/08/19 08:49:45;;;;;;;3.70;3.00;;;25.70;87.50;;;;;;5062384;28;20431;-67
2023/08/19 08:52:11;;;;;;;3.22;2.80;;;25.80;87.80;;;;;;5069810;28;20571;-67
2023/08/19 08:54:40;;;;;;;4.22;3.50;;;25.90;87.50;;;;;;5067667;28;20928;-68
2023/08/19 08:57:07;;;;;;;4.88;2.90;;;25.90;86.90;;;;;;5068589;28;20437;-68
2023/08/19 08:59:34;;;;;;;3.47;3.17;;;25.90;86.00;;;;;;5069058;28;20435;-67
2023/08/19 09:02:01;;;;;;;3.37;2.90;;;26.00;87.40;;;;;;5061074;28;20439;-68
2023/08/19 09:04:29;;;;;;;4.78;3.00;;;26.00;86.00;;;;;;5055744;28;20431;-68
2023/08/19 09:07:09;;;;;;;4.93;3.80;;;26.10;85.50;;;;;;5048896;28;20468;-67
2023/08/19 09:09:40;;;;;;;4.40;3.10;;;26.20;85.50;;;;;;5055714;28;20454;-68
2023/08/19 09:12:11;;;;;;;3.80;3.00;;;26.20;86.20;;;;;;5066988;28;20420;-67
2023/08/19 09:14:41;;;;;;;5.15;3.20;;;26.20;85.00;;;;;;5061549;28;20743;-67
2023/08/19 09:17:08;;;;;;;3.97;2.95;;;26.30;84.60;;;;;;5067464;28;20438;-70
2023/08/19 09:19:36;;;;;;;3.95;2.80;;;26.40;85.20;;;;;;5062634;28;20512;-67
2023/08/19 09:22:11;;;;;;;3.90;2.95;;;26.50;84.50;;;;;;5064321;28;20423;-68
2023/08/19 09:24:38;;;;;;;6.00;3.10;;;26.60;83.60;;;;;;5067365;28;20437;-67
2023/08/19 09:27:06;;;;;;;3.40;3.07;;;26.70;83.60;;;;;;5069158;28;20438;-68
2023/08/19 09:29:33;;;;;;;2.95;2.65;;;26.90;84.00;;;;;;5057792;28;20433;-67
2023/08/19 09:31:59;;;;;;;4.07;3.10;;;27.20;82.10;;;;;;5067934;28;20423;-69
2023/08/19 09:34:26;;;;;;;3.70;2.70;;;27.40;81.40;;;;;;5056522;28;20443;-69
2023/08/19 09:36:54;;;;;;;3.33;2.53;;;27.70;80.10;;;;;;5071247;28;20425;-69
2023/08/19 09:39:25;;;;;;;3.87;3.10;;;28.00;78.70;;;;;;5061404;28;20848;-69
2023/08/19 09:41:58;;;;;;;5.07;3.40;;;28.30;77.30;;;;;;5063151;28;20427;-69
2023/08/19 09:44:28;;;;;;;3.85;3.00;;;28.50;75.50;;;;;;5063155;28;20511;-69
2023/08/19 09:46:56;;;;;;;3.47;2.90;;;28.60;75.10;;;;;;5058857;28;20433;-69
2023/08/19 09:49:24;;;;;;;6.07;3.00;;;28.80;74.20;;;;;;5066558;28;20518;-67
2023/08/19 09:51:54;;;;;;;3.30;3.00;;;28.90;72.80;;;;;;5060511;28;20592;-69
2023/08/19 09:54:23;;;;;;;3.80;3.00;;;28.90;72.80;;;;;;5070137;28;20982;-70
2023/08/19 09:56:55;;;;;;;5.05;3.20;;;28.80;71.80;;;;;;5067770;28;20462;-69
2023/08/19 09:59:22;;;;;;;4.07;3.10;;;28.90;72.00;;;;;;5057543;28;20437;-71
2023/08/19 10:01:51;;;;;;;4.10;2.90;;;29.00;73.20;;;;;;5068808;28;20425;-69
2023/08/19 10:04:18;;;;;;;4.22;3.10;;;29.00;71.40;;;;;;5064346;28;20415;-69
2023/08/19 10:06:48;;;;;;;4.28;3.35;;;29.10;71.20;;;;;;5064186;28;20500;-69
2023/08/19 10:09:18;;;;;;;3.87;2.90;;;29.30;69.90;;;;;;5059210;28;20435;-69
2023/08/19 10:11:49;;;;;;;3.30;3.00;;;29.50;68.90;;;;;;5069734;28;20459;-68
2023/08/19 10:14:18;;;;;;;3.42;3.10;;;29.60;67.60;;;;;;5062104;28;20435;-69
2023/08/19 10:16:49;;;;;;;3.70;3.08;;;29.80;67.50;;;;;;5066883;28;20442;-69
2023/08/19 10:19:20;;;;;;;3.50;3.00;;;29.80;67.10;;;;;;5060715;28;20435;-69
2023/08/19 10:21:49;;;;;;;4.00;2.88;;;29.90;67.00;;;;;;5062915;28;22573;-68
2023/08/19 10:24:18;;;;;;;3.92;3.13;;;30.00;66.50;;;;;;5067607;28;20431;-69
2023/08/19 10:26:48;;;;;;;3.70;3.20;;;30.10;65.90;;;;;;5066043;28;20442;-69
2023/08/19 10:29:15;;;;;;;3.80;2.80;;;30.30;66.70;;;;;;5060365;28;20445;-69
2023/08/19 10:31:42;;;;;;;4.30;3.00;;;30.50;65.00;;;;;;5066279;28;20424;-71
2023/08/19 10:34:23;;;;;;;3.20;2.80;;;30.70;63.70;;;;;;5063261;28;20524;-68
2023/08/19 10:37:05;;;;;;;3.87;2.70;;;30.90;63.40;;;;;;5063654;28;20432;-68
2023/08/19 10:39:32;;;;;;;3.45;3.10;;;31.20;62.50;;;;;;5062905;28;20975;-69
2023/08/19 10:42:00;;;;;;;3.15;2.85;;;31.50;60.80;;;;;;5062447;28;20423;-68
2023/08/19 10:44:31;;;;;;;3.47;2.90;;;31.70;59.80;;;;;;5063796;28;20436;-69
2023/08/19 10:47:09;;;;;;;3.08;2.85;;;32.00;58.10;;;;;;5057475;28;20493;-68
2023/08/19 10:49:36;;;;;;;3.30;2.60;;;32.20;58.10;;;;;;5055623;28;21039;-66
2023/08/19 10:52:04;;;;;;;4.57;3.40;;;32.50;56.80;;;;;;5065154;28;20439;-67
2023/08/19 10:54:35;;;;;;;3.53;2.80;;;32.70;55.80;;;;;;5054949;28;20438;-69
2023/08/19 10:57:09;;;;;;;4.13;3.10;;;32.90;54.60;;;;;;5057546;28;20827;-67
2023/08/19 10:59:37;;;;;;;3.15;2.85;;;32.90;52.10;;;;;;5063037;28;20431;-68
2023/08/19 11:02:04;;;;;;;3.90;2.80;;;32.90;52.20;;;;;;5063452;28;20530;-68
2023/08/19 11:04:31;;;;;;;3.65;2.90;;;32.80;52.60;;;;;;5070707;28;20439;-69
2023/08/19 11:06:59;;;;;;;3.83;2.90;;;32.70;53.60;;;;;;5065601;28;20419;-69
2023/08/19 11:09:26;;;;;;;4.37;3.20;;;32.50;53.40;;;;;;5060624;28;20455;-69
2023/08/19 11:11:55;;;;;;;3.20;2.90;;;32.30;55.30;;;;;;5060215;28;20511;-68
2023/08/19 11:14:23;;;;;;;3.40;3.10;;;32.10;54.30;;;;;;5069424;28;20436;-68
2023/08/19 11:16:50;;;;;;;4.60;3.30;;;31.80;57.70;;;;;;5069391;28;20427;-68
2023/08/19 11:19:18;;;;;;;4.50;4.00;;;31.70;58.00;;;;;;5065268;28;20435;-68
2023/08/19 11:21:45;;;;;;;3.70;3.30;;;31.60;59.20;;;;;;5059205;28;20436;-68
2023/08/19 11:24:12;;;;;;;4.27;3.57;;;31.40;59.30;;;;;;5062079;28;20428;-68
2023/08/19 11:26:39;;;;;;;3.40;3.10;;;31.20;60.00;;;;;;5061130;28;20437;-68
2023/08/19 11:29:07;;;;;;;3.70;3.30;;;31.10;61.70;;;;;;5065497;28;20436;-68
2023/08/19 11:31:35;;;;;;;5.82;4.00;;;31.00;63.00;;;;;;5063932;28;20452;-67
2023/08/19 11:34:06;;;;;;;6.10;3.92;;;30.90;62.50;;;;;;5061962;28;20444;-69
2023/08/19 11:36:34;;;;;;;5.20;4.13;;;30.80;62.30;;;;;;5073488;28;20425;-69
2023/08/19 11:39:02;;;;;;;5.88;3.90;;;30.70;61.70;;;;;;5071691;28;20586;-69
2023/08/19 11:41:29;;;;;;;4.32;3.92;;;30.50;62.40;;;;;;5066004;28;20424;-69
2023/08/19 11:43:57;;;;;;;5.75;4.50;;;30.40;63.70;;;;;;5067964;28;20486;-69
2023/08/19 11:46:27;;;;;;;4.63;4.22;;;30.20;64.10;;;;;;5070206;28;20433;-69
2023/08/19 11:48:57;;;;;;;4.40;3.80;;;30.10;65.00;;;;;;5066967;28;20434;-68
2023/08/19 11:51:23;;;;;;;5.30;4.80;;;30.10;65.30;;;;;;5071225;28;20431;-68
2023/08/19 11:53:53;;;;;;;4.50;4.10;;;30.10;65.80;;;;;;5077662;28;20430;-68
2023/08/19 11:56:20;;;;;;;5.18;4.28;;;30.10;66.70;;;;;;5075184;28;20434;-68
2023/08/19 11:58:49;;;;;;;5.68;4.00;;;30.00;67.60;;;;;;5067681;28;20435;-68
2023/08/19 12:01:16;;;;;;;4.70;4.20;;;30.10;66.30;;;;;;5066035;28;20431;-69
2023/08/19 12:03:44;;;;;;;4.55;4.05;;;30.20;65.90;;;;;;5069031;28;20419;-69
2023/08/19 12:06:12;;;;;;;4.80;4.30;;;30.30;65.50;;;;;;5075938;28;20496;-68
2023/08/19 12:08:40;;;;;;;5.32;4.20;;;30.40;65.60;;;;;;5068879;28;20436;-68
2023/08/19 12:11:08;;;;;;;4.50;4.10;;;30.60;65.10;;;;;;5067695;28;20442;-68
2023/08/19 12:13:35;;;;;;;4.45;4.03;;;30.80;64.30;;;;;;5075150;28;20455;-69
2023/08/19 12:16:02;;;;;;;5.90;4.60;;;30.90;64.30;;;;;;5075123;28;20429;-68
2023/08/19 12:18:32;;;;;;;4.45;3.95;;;31.00;65.00;;;;;;5070984;28;20485;-69
2023/08/19 12:20:59;;;;;;;4.55;4.20;;;31.50;64.30;;;;;;5060056;28;20464;-69
2023/08/19 12:23:28;;;;;;;4.88;4.47;;;32.00;63.30;;;;;;5062967;28;20523;-69
2023/08/19 12:25:56;;;;;;;5.18;4.70;;;32.20;62.50;;;;;;5067338;28;20431;-70
2023/08/19 12:28:23;;;;;;;4.70;4.13;;;32.20;62.40;;;;;;5065092;28;20440;-68
2023/08/19 12:30:50;;;;;;;4.50;4.20;;;32.30;62.10;;;;;;5053721;28;20844;-73
2023/08/19 12:33:18;;;;;;;5.45;4.20;;;32.50;62.00;;;;;;5062634;28;20430;-72
2023/08/19 12:35:46;;;;;;;5.10;4.70;;;32.50;61.70;;;;;;5065788;28;20465;-73
2023/08/19 12:38:14;;;;;;;5.18;4.78;;;32.50;60.60;;;;;;5062411;28;20504;-71
2023/08/19 12:40:43;;;;;;;5.20;4.40;;;32.30;62.10;;;;;;5061223;28;20446;-72
2023/08/19 12:43:12;;;;;;;6.15;5.10;;;31.90;63.90;;;;;;5059401;28;20431;-72
2023/08/19 12:45:39;;;;;;;5.10;4.80;;;31.70;65.80;;;;;;5063562;28;20447;-71
2023/08/19 12:48:06;;;;;;;5.75;5.20;;;31.40;67.10;;;;;;5064156;28;20517;-67
2023/08/19 12:50:34;;;;;;;5.70;5.30;;;31.20;68.30;;;;;;5067864;28;20440;-67